sensor_id;sensor_type;location;lat;lon;timestamp;pressure;altitude;pressure_sealevel;temperature;humidity
818;BME280;391;51.052;6.954;2023-05-14T00:00:42;101171.53;;;15.04;77.52
818;BME280;391;51.052;6.954;2023-05-14T00:02:45;101171.56;;;15.07;77.43
818;BME280;391;51.052;6.954;2023-05-14T00:04:49;101179.50;;;15.10;77.57
818;BME280;391;51.052;6.954;2023-05-14T00:06:52;101172.50;;;15.11;77.14
818;BME280;391;51.052;6.954;2023-05-14T00:08:56;101176.03;;;15.11;77.10
818;BME280;391;51.052;6.954;2023-05-14T00:10:59;101144.31;;;15.01;76.98
818;BME280;391;51.052;6.954;2023-05-14T00:13:04;101166.47;;;15.15;76.94
818;BME280;391;51.052;6.954;2023-05-14T00:15:08;101166.47;;;15.15;76.83
818;BME280;391;51.052;6.954;2023-05-14T00:17:12;101164.72;;;15.17;76.76
818;BME280;391;51.052;6.954;2023-05-14T00:19:15;101157.59;;;15.10;76.52
818;BME280;391;51.052;6.954;2023-05-14T00:21:19;101162.06;;;15.12;76.52
818;BME280;391;51.052;6.954;2023-05-14T00:23:23;101162.94;;;15.14;76.73
818;BME280;391;51.052;6.954;2023-05-14T00:25:27;101166.41;;;15.12;76.21
818;BME280;391;51.052;6.954;2023-05-14T00:27:30;101160.81;;;14.94;76.28
818;BME280;391;51.052;6.954;2023-05-14T00:29:35;101154.56;;;14.87;76.24
818;BME280;391;51.052;6.954;2023-05-14T00:31:38;101164.22;;;14.88;76.35
818;BME280;391;51.052;6.954;2023-05-14T00:33:42;101158.97;;;14.88;76.42
818;BME280;391;51.052;6.954;2023-05-14T00:35:45;101160.66;;;14.83;76.45
818;BME280;391;51.052;6.954;2023-05-14T00:37:49;101151.94;;;14.87;76.40
818;BME280;391;51.052;6.954;2023-05-14T00:39:52;101158.03;;;14.84;76.38
818;BME280;391;51.052;6.954;2023-05-14T00:41:56;101154.41;;;14.76;76.18
818;BME280;391;51.052;6.954;2023-05-14T00:43:59;101151.22;;;14.48;76.42
818;BME280;391;51.052;6.954;2023-05-14T00:46:05;101153.34;;;14.26;77.05
818;BME280;391;51.052;6.954;2023-05-14T00:48:09;101144.59;;;14.24;77.18
818;BME280;391;51.052;6.954;2023-05-14T00:50:16;101150.16;;;14.40;77.36
818;BME280;391;51.052;6.954;2023-05-14T00:52:20;101146.94;;;14.53;77.21
818;BME280;391;51.052;6.954;2023-05-14T00:54:24;101148.00;;;14.62;76.92
818;BME280;391;51.052;6.954;2023-05-14T00:56:27;101148.03;;;14.64;76.53
818;BME280;391;51.052;6.954;2023-05-14T00:58:31;101139.16;;;14.57;76.46
818;BME280;391;51.052;6.954;2023-05-14T01:00:34;101138.28;;;14.57;76.63
818;BME280;391;51.052;6.954;2023-05-14T01:02:40;101133.88;;;14.56;76.57
818;BME280;391;51.052;6.954;2023-05-14T01:04:43;101142.69;;;14.59;76.49
818;BME280;391;51.052;6.954;2023-05-14T01:06:53;101138.31;;;14.60;76.17
818;BME280;391;51.052;6.954;2023-05-14T01:09:07;101134.69;;;14.53;76.17
818;BME280;391;51.052;6.954;2023-05-14T01:11:18;101132.91;;;14.52;76.17
818;BME280;391;51.052;6.954;2023-05-14T01:13:26;101129.44;;;14.53;76.26
818;BME280;391;51.052;6.954;2023-05-14T01:15:32;101131.25;;;14.56;76.10
818;BME280;391;51.052;6.954;2023-05-14T01:17:41;101132.19;;;14.59;75.94
818;BME280;391;51.052;6.954;2023-05-14T01:19:46;101129.56;;;14.59;75.59
818;BME280;391;51.052;6.954;2023-05-14T01:21:51;101129.50;;;14.56;75.42
818;BME280;391;51.052;6.954;2023-05-14T01:23:54;101126.53;;;14.38;75.72
818;BME280;391;51.052;6.954;2023-05-14T01:25:58;101127.28;;;14.32;75.75
818;BME280;391;51.052;6.954;2023-05-14T01:28:08;101114.97;;;14.30;75.59
818;BME280;391;51.052;6.954;2023-05-14T01:30:19;101120.41;;;14.39;75.67
818;BME280;391;51.052;6.954;2023-05-14T01:32:25;101121.41;;;14.44;75.33
818;BME280;391;51.052;6.954;2023-05-14T01:34:30;101117.06;;;14.45;75.32
818;BME280;391;51.052;6.954;2023-05-14T01:36:37;101122.13;;;14.37;75.02
818;BME280;391;51.052;6.954;2023-05-14T01:38:44;101120.63;;;14.08;74.88
818;BME280;391;51.052;6.954;2023-05-14T01:40:49;101126.06;;;13.76;75.45
818;BME280;391;51.052;6.954;2023-05-14T01:42:53;101129.41;;;13.69;76.00
818;BME280;391;51.052;6.954;2023-05-14T01:44:57;101126.00;;;13.72;75.85
818;BME280;391;51.052;6.954;2023-05-14T01:47:02;101122.53;;;13.74;75.97
818;BME280;391;51.052;6.954;2023-05-14T01:49:05;101120.06;;;13.81;75.93
818;BME280;391;51.052;6.954;2023-05-14T01:51:09;101116.72;;;13.88;75.83
818;BME280;391;51.052;6.954;2023-05-14T01:53:16;101108.03;;;13.92;75.76
818;BME280;391;51.052;6.954;2023-05-14T01:55:21;101111.56;;;13.92;75.55
818;BME280;391;51.052;6.954;2023-05-14T01:57:25;101108.16;;;13.96;75.68
818;BME280;391;51.052;6.954;2023-05-14T01:59:28;101111.66;;;13.97;75.82
818;BME280;391;51.052;6.954;2023-05-14T02:01:31;101102.88;;;13.95;75.28
818;BME280;391;51.052;6.954;2023-05-14T02:03:35;101107.13;;;13.90;75.44
818;BME280;391;51.052;6.954;2023-05-14T02:05:39;101111.47;;;13.88;75.32
818;BME280;391;51.052;6.954;2023-05-14T02:07:42;101109.66;;;13.85;75.23
818;BME280;391;51.052;6.954;2023-05-14T02:09:46;101101.66;;;13.77;75.50
818;BME280;391;51.052;6.954;2023-05-14T02:11:50;101105.03;;;13.73;75.37
818;BME280;391;51.052;6.954;2023-05-14T02:13:54;101103.19;;;13.69;75.60
818;BME280;391;51.052;6.954;2023-05-14T02:15:57;101098.59;;;13.59;75.31
818;BME280;391;51.052;6.954;2023-05-14T02:18:01;101093.34;;;13.58;75.56
818;BME280;391;51.052;6.954;2023-05-14T02:20:06;101090.78;;;13.61;75.62
818;BME280;391;51.052;6.954;2023-05-14T02:22:11;100989.69;;;12.93;75.95
818;BME280;391;51.052;6.954;2023-05-14T02:24:15;101097.75;;;13.59;75.77
818;BME280;391;51.052;6.954;2023-05-14T02:26:18;101101.31;;;13.62;75.76
818;BME280;391;51.052;6.954;2023-05-14T02:28:23;101100.44;;;13.63;75.71
818;BME280;391;51.052;6.954;2023-05-14T02:30:27;101096.84;;;13.58;75.43
818;BME280;391;51.052;6.954;2023-05-14T02:32:31;101097.59;;;13.53;75.38
818;BME280;391;51.052;6.954;2023-05-14T02:34:34;101093.97;;;13.46;75.52
818;BME280;391;51.052;6.954;2023-05-14T02:36:38;101092.19;;;13.45;75.62
818;BME280;391;51.052;6.954;2023-05-14T02:38:41;101087.78;;;13.44;75.80
818;BME280;391;51.052;6.954;2023-05-14T02:40:45;101088.69;;;13.45;75.82
818;BME280;391;51.052;6.954;2023-05-14T02:42:48;101087.84;;;13.47;75.77
818;BME280;391;51.052;6.954;2023-05-14T02:44:53;101096.66;;;13.49;75.46
818;BME280;391;51.052;6.954;2023-05-14T02:46:56;101096.59;;;13.48;75.29
818;BME280;391;51.052;6.954;2023-05-14T02:49:00;101100.03;;;13.45;75.10
818;BME280;391;51.052;6.954;2023-05-14T02:51:04;101105.22;;;13.42;75.07
818;BME280;391;51.052;6.954;2023-05-14T02:53:07;101105.84;;;13.32;75.17
818;BME280;391;51.052;6.954;2023-05-14T02:55:11;101104.53;;;13.15;75.24
818;BME280;391;51.052;6.954;2023-05-14T02:57:14;101090.38;;;13.07;75.56
818;BME280;391;51.052;6.954;2023-05-14T02:59:18;101100.00;;;13.08;75.58
818;BME280;391;51.052;6.954;2023-05-14T03:01:23;101103.63;;;13.13;75.63
818;BME280;391;51.052;6.954;2023-05-14T03:03:28;101071.59;;;12.89;75.08
818;BME280;391;51.052;6.954;2023-05-14T03:05:32;101110.34;;;13.03;75.28
818;BME280;391;51.052;6.954;2023-05-14T03:07:35;101079.69;;;12.98;75.57
818;BME280;391;51.052;6.954;2023-05-14T03:09:39;101095.72;;;13.11;75.51
818;BME280;391;51.052;6.954;2023-05-14T03:11:42;101104.47;;;13.12;75.45
818;BME280;391;51.052;6.954;2023-05-14T03:13:46;101103.56;;;13.10;75.27
818;BME280;391;51.052;6.954;2023-05-14T03:15:49;101102.13;;;12.90;75.65
818;BME280;391;51.052;6.954;2023-05-14T03:17:58;101095.09;;;12.87;76.02
818;BME280;391;51.052;6.954;2023-05-14T03:20:01;101104.81;;;12.93;75.94
818;BME280;391;51.052;6.954;2023-05-14T03:22:05;101109.31;;;12.97;75.79
818;BME280;391;51.052;6.954;2023-05-14T03:24:09;101100.63;;;12.98;75.66
818;BME280;391;51.052;6.954;2023-05-14T03:26:12;101100.63;;;12.98;75.63
818;BME280;391;51.052;6.954;2023-05-14T03:28:16;101104.13;;;12.98;75.65
818;BME280;391;51.052;6.954;2023-05-14T03:30:19;101103.31;;;13.02;75.62
818;BME280;391;51.052;6.954;2023-05-14T03:32:23;101107.84;;;13.08;75.73
818;BME280;391;51.052;6.954;2023-05-14T03:34:28;101099.06;;;13.06;75.42
818;BME280;391;51.052;6.954;2023-05-14T03:36:31;100986.53;;;12.36;75.37
818;BME280;391;51.052;6.954;2023-05-14T03:38:37;101102.34;;;12.97;75.36
818;BME280;391;51.052;6.954;2023-05-14T03:40:40;101059.94;;;12.76;75.34
818;BME280;391;51.052;6.954;2023-05-14T03:42:44;101102.34;;;12.99;75.18
818;BME280;391;51.052;6.954;2023-05-14T03:44:49;100996.16;;;12.37;75.24
818;BME280;391;51.052;6.954;2023-05-14T03:46:52;101099.34;;;12.82;75.21
818;BME280;391;51.052;6.954;2023-05-14T03:48:57;101102.72;;;12.45;75.56
818;BME280;391;51.052;6.954;2023-05-14T03:51:02;101089.72;;;12.15;76.06
818;BME280;391;51.052;6.954;2023-05-14T03:53:06;101091.53;;;12.19;76.55
818;BME280;391;51.052;6.954;2023-05-14T03:55:09;101088.41;;;12.31;76.56
818;BME280;391;51.052;6.954;2023-05-14T03:57:12;101096.56;;;12.43;76.32
818;BME280;391;51.052;6.954;2023-05-14T03:59:16;101087.91;;;12.46;76.11
818;BME280;391;51.052;6.954;2023-05-14T04:01:20;101091.41;;;12.46;76.20
818;BME280;391;51.052;6.954;2023-05-14T04:03:24;101081.94;;;12.51;76.05
818;BME280;391;51.052;6.954;2023-05-14T04:05:28;101085.53;;;12.55;76.07
818;BME280;391;51.052;6.954;2023-05-14T04:07:33;101087.41;;;12.59;76.25
818;BME280;391;51.052;6.954;2023-05-14T04:09:36;101086.72;;;12.66;76.06
818;BME280;391;51.052;6.954;2023-05-14T04:11:40;100968.28;;;12.04;75.94
818;BME280;391;51.052;6.954;2023-05-14T04:13:43;101087.69;;;12.69;75.94
818;BME280;391;51.052;6.954;2023-05-14T04:15:47;101087.56;;;12.65;75.80
818;BME280;391;51.052;6.954;2023-05-14T04:17:51;101092.41;;;12.51;75.75
818;BME280;391;51.052;6.954;2023-05-14T04:19:55;101093.19;;;12.47;76.23
818;BME280;391;51.052;6.954;2023-05-14T04:22:04;101094.25;;;12.54;76.18
818;BME280;391;51.052;6.954;2023-05-14T04:24:09;101095.16;;;12.56;76.15
818;BME280;391;51.052;6.954;2023-05-14T04:26:12;101094.31;;;12.57;76.19
818;BME280;391;51.052;6.954;2023-05-14T04:28:16;101040.31;;;12.26;75.71
818;BME280;391;51.052;6.954;2023-05-14T04:30:19;101088.16;;;12.55;76.49
818;BME280;391;51.052;6.954;2023-05-14T04:32:23;100980.94;;;11.89;76.17
818;BME280;391;51.052;6.954;2023-05-14T04:34:27;101083.69;;;12.51;76.34
818;BME280;391;51.052;6.954;2023-05-14T04:36:30;101089.88;;;12.54;76.35
818;BME280;391;51.052;6.954;2023-05-14T04:38:34;101087.41;;;12.59;76.63
818;BME280;391;51.052;6.954;2023-05-14T04:40:39;101086.19;;;12.46;76.26
818;BME280;391;51.052;6.954;2023-05-14T04:42:43;101097.09;;;12.32;76.73
818;BME280;391;51.052;6.954;2023-05-14T04:44:46;101091.84;;;12.30;76.84
818;BME280;391;51.052;6.954;2023-05-14T04:46:49;101094.69;;;12.38;77.01
818;BME280;391;51.052;6.954;2023-05-14T04:48:53;101090.84;;;12.25;76.86
818;BME280;391;51.052;6.954;2023-05-14T04:50:57;101087.69;;;12.07;77.24
818;BME280;391;51.052;6.954;2023-05-14T04:53:01;101091.28;;;12.10;77.77
818;BME280;391;51.052;6.954;2023-05-14T04:55:05;101088.91;;;12.18;77.61
818;BME280;391;51.052;6.954;2023-05-14T04:57:10;101082.34;;;12.02;77.82
818;BME280;391;51.052;6.954;2023-05-14T04:59:15;101084.59;;;11.90;78.39
818;BME280;391;51.052;6.954;2023-05-14T05:01:18;101080.66;;;12.04;79.16
818;BME280;391;51.052;6.954;2023-05-14T05:03:22;101079.34;;;12.18;78.59
818;BME280;391;51.052;6.954;2023-05-14T05:05:25;101081.88;;;12.17;79.07
818;BME280;391;51.052;6.954;2023-05-14T05:07:29;101079.13;;;12.12;78.96
818;BME280;391;51.052;6.954;2023-05-14T05:09:32;101080.09;;;12.16;79.30
818;BME280;391;51.052;6.954;2023-05-14T05:11:36;101082.56;;;12.10;79.48
818;BME280;391;51.052;6.954;2023-05-14T05:13:41;101073.47;;;11.96;80.42
818;BME280;391;51.052;6.954;2023-05-14T05:15:44;101085.25;;;12.13;80.21
818;BME280;391;51.052;6.954;2023-05-14T05:17:48;101076.63;;;12.15;80.93
818;BME280;391;51.052;6.954;2023-05-14T05:19:51;101076.53;;;12.12;80.87
818;BME280;391;51.052;6.954;2023-05-14T05:21:55;101079.09;;;12.11;81.28
818;BME280;391;51.052;6.954;2023-05-14T05:24:00;101068.00;;;12.18;81.44
818;BME280;391;51.052;6.954;2023-05-14T05:26:06;101077.78;;;12.25;81.40
818;BME280;391;51.052;6.954;2023-05-14T05:28:09;101082.44;;;12.37;81.46
818;BME280;391;51.052;6.954;2023-05-14T05:30:14;101083.34;;;12.39;81.59
818;BME280;391;51.052;6.954;2023-05-14T05:32:18;101083.50;;;12.45;81.86
818;BME280;391;51.052;6.954;2023-05-14T05:34:21;101087.16;;;12.50;81.81
818;BME280;391;51.052;6.954;2023-05-14T05:36:25;101082.00;;;12.53;82.02
818;BME280;391;51.052;6.954;2023-05-14T05:38:29;101088.13;;;12.53;82.36
818;BME280;391;51.052;6.954;2023-05-14T05:40:33;101091.56;;;12.52;82.69
818;BME280;391;51.052;6.954;2023-05-14T05:42:36;101096.00;;;12.55;83.11
818;BME280;391;51.052;6.954;2023-05-14T05:44:40;101098.75;;;12.59;83.06
818;BME280;391;51.052;6.954;2023-05-14T05:46:45;101093.59;;;12.62;83.24
818;BME280;391;51.052;6.954;2023-05-14T05:48:48;101090.22;;;12.66;83.65
818;BME280;391;51.052;6.954;2023-05-14T05:50:52;101094.50;;;12.63;83.92
818;BME280;391;51.052;6.954;2023-05-14T05:52:56;100991.72;;;12.01;84.01
818;BME280;391;51.052;6.954;2023-05-14T05:55:00;101099.66;;;12.61;84.56
818;BME280;391;51.052;6.954;2023-05-14T05:57:04;101093.63;;;12.64;84.65
818;BME280;391;51.052;6.954;2023-05-14T05:59:07;101099.81;;;12.67;84.88
818;BME280;391;51.052;6.954;2023-05-14T06:01:11;101099.06;;;12.71;84.84
818;BME280;391;51.052;6.954;2023-05-14T06:03:16;101100.06;;;12.77;84.89
818;BME280;391;51.052;6.954;2023-05-14T06:05:19;101103.84;;;12.88;84.95
818;BME280;391;51.052;6.954;2023-05-14T06:07:23;101105.94;;;13.02;84.65
818;BME280;391;51.052;6.954;2023-05-14T06:09:26;101107.22;;;13.18;84.67
818;BME280;391;51.052;6.954;2023-05-14T06:11:30;101103.00;;;13.23;84.24
818;BME280;391;51.052;6.954;2023-05-14T06:13:33;101104.59;;;13.16;84.24
818;BME280;391;51.052;6.954;2023-05-14T06:15:37;101106.53;;;13.23;84.35
818;BME280;391;51.052;6.954;2023-05-14T06:17:40;101099.38;;;13.18;84.08
818;BME280;391;51.052;6.954;2023-05-14T06:19:45;100993.09;;;12.53;84.32
818;BME280;391;51.052;6.954;2023-05-14T06:21:49;101109.16;;;13.25;84.40
818;BME280;391;51.052;6.954;2023-05-14T06:23:53;101108.38;;;13.29;84.45
818;BME280;391;51.052;6.954;2023-05-14T06:25:56;101108.50;;;13.34;84.26
818;BME280;391;51.052;6.954;2023-05-14T06:28:00;101106.09;;;13.43;84.30
818;BME280;391;51.052;6.954;2023-05-14T06:30:04;101095.78;;;13.50;84.17
818;BME280;391;51.052;6.954;2023-05-14T06:32:08;101100.38;;;13.60;84.16
818;BME280;391;51.052;6.954;2023-05-14T06:34:11;101100.63;;;13.71;84.01
818;BME280;391;51.052;6.954;2023-05-14T06:36:16;101102.47;;;13.75;83.96
818;BME280;391;51.052;6.954;2023-05-14T06:38:19;101100.56;;;13.68;83.49
818;BME280;391;51.052;6.954;2023-05-14T06:40:23;101118.91;;;13.69;83.54
818;BME280;391;51.052;6.954;2023-05-14T06:42:27;101106.72;;;13.70;83.43
818;BME280;391;51.052;6.954;2023-05-14T06:44:32;101108.44;;;13.69;83.42
818;BME280;391;51.052;6.954;2023-05-14T06:46:35;101110.09;;;13.66;83.39
818;BME280;391;51.052;6.954;2023-05-14T06:48:39;100973.13;;;12.94;83.07
818;BME280;391;51.052;6.954;2023-05-14T06:50:42;101099.03;;;13.79;82.83
818;BME280;391;51.052;6.954;2023-05-14T06:52:47;101099.94;;;13.79;82.99
818;BME280;391;51.052;6.954;2023-05-14T06:54:51;101098.56;;;13.97;82.78
818;BME280;391;51.052;6.954;2023-05-14T06:56:54;101091.03;;;14.13;82.58
818;BME280;391;51.052;6.954;2023-05-14T06:58:58;101101.56;;;14.15;81.97
818;BME280;391;51.052;6.954;2023-05-14T07:01:02;101098.09;;;14.16;81.82
818;BME280;391;51.052;6.954;2023-05-14T07:03:05;101099.09;;;14.24;81.99
818;BME280;391;51.052;6.954;2023-05-14T07:05:09;101099.38;;;14.36;81.48
818;BME280;391;51.052;6.954;2023-05-14T07:07:13;101095.91;;;14.37;81.55
818;BME280;391;51.052;6.954;2023-05-14T07:09:20;101101.13;;;14.36;81.52
818;BME280;391;51.052;6.954;2023-05-14T07:11:24;101096.84;;;14.41;81.34
818;BME280;391;51.052;6.954;2023-05-14T07:13:27;101098.69;;;14.46;81.39
818;BME280;391;51.052;6.954;2023-05-14T07:15:31;101099.06;;;14.64;80.99
818;BME280;391;51.052;6.954;2023-05-14T07:17:34;101081.53;;;14.63;81.18
818;BME280;391;51.052;6.954;2023-05-14T07:19:38;101074.81;;;14.80;80.68
818;BME280;391;51.052;6.954;2023-05-14T07:21:42;101102.00;;;14.82;79.74
818;BME280;391;51.052;6.954;2023-05-14T07:23:45;101103.47;;;14.68;79.16
818;BME280;391;51.052;6.954;2023-05-14T07:25:50;101094.13;;;14.82;78.97
818;BME280;391;51.052;6.954;2023-05-14T07:27:53;101101.19;;;14.87;78.82
818;BME280;391;51.052;6.954;2023-05-14T07:29:57;101073.81;;;14.72;77.96
818;BME280;391;51.052;6.954;2023-05-14T07:32:00;101091.69;;;14.93;77.44
818;BME280;391;51.052;6.954;2023-05-14T07:34:04;101090.06;;;15.01;77.07
818;BME280;391;51.052;6.954;2023-05-14T07:36:07;101089.22;;;15.02;76.20
818;BME280;391;51.052;6.954;2023-05-14T07:38:11;101086.53;;;15.01;75.90
818;BME280;391;51.052;6.954;2023-05-14T07:40:15;101090.16;;;15.07;75.74
818;BME280;391;51.052;6.954;2023-05-14T07:42:20;101085.09;;;15.18;75.62
818;BME280;391;51.052;6.954;2023-05-14T07:44:37;100993.25;;;14.67;75.04
818;BME280;391;51.052;6.954;2023-05-14T07:46:41;101065.88;;;15.22;74.79
818;BME280;391;51.052;6.954;2023-05-14T07:48:47;101079.28;;;15.40;73.88
818;BME280;391;51.052;6.954;2023-05-14T07:50:50;101079.50;;;15.52;73.88
818;BME280;391;51.052;6.954;2023-05-14T07:52:54;101087.47;;;15.58;73.78
818;BME280;391;51.052;6.954;2023-05-14T07:54:58;101078.06;;;15.75;73.84
818;BME280;391;51.052;6.954;2023-05-14T07:57:02;101072.13;;;15.88;73.12
818;BME280;391;51.052;6.954;2023-05-14T07:59:08;101073.97;;;15.99;73.11
818;BME280;391;51.052;6.954;2023-05-14T08:01:12;101078.41;;;16.03;72.78
818;BME280;391;51.052;6.954;2023-05-14T08:03:15;101081.97;;;16.05;72.86
818;BME280;391;51.052;6.954;2023-05-14T08:05:19;101056.38;;;15.93;72.55
818;BME280;391;51.052;6.954;2023-05-14T08:07:22;100992.47;;;15.32;72.82
818;BME280;391;51.052;6.954;2023-05-14T08:09:26;101080.94;;;15.94;71.89
818;BME280;391;51.052;6.954;2023-05-14T08:11:30;101087.13;;;15.99;71.07
818;BME280;391;51.052;6.954;2023-05-14T08:13:33;101084.75;;;16.21;70.80
818;BME280;391;51.052;6.954;2023-05-14T08:15:38;101082.28;;;16.35;70.18
818;BME280;391;51.052;6.954;2023-05-14T08:17:42;101092.00;;;16.39;68.52
818;BME280;391;51.052;6.954;2023-05-14T08:19:45;101094.63;;;16.40;68.22
818;BME280;391;51.052;6.954;2023-05-14T08:21:49;101086.06;;;16.55;68.19
818;BME280;391;51.052;6.954;2023-05-14T08:23:52;101087.09;;;16.72;68.48
818;BME280;391;51.052;6.954;2023-05-14T08:25:56;101094.22;;;16.81;68.08
818;BME280;391;51.052;6.954;2023-05-14T08:28:00;101086.41;;;16.93;68.15
818;BME280;391;51.052;6.954;2023-05-14T08:30:05;101089.94;;;16.95;67.66
818;BME280;391;51.052;6.954;2023-05-14T08:32:10;101090.06;;;17.09;67.71
818;BME280;391;51.052;6.954;2023-05-14T08:34:24;101070.72;;;17.07;67.35
818;BME280;391;51.052;6.954;2023-05-14T08:36:29;101081.28;;;17.07;66.22
818;BME280;391;51.052;6.954;2023-05-14T08:38:32;101092.66;;;17.06;65.80
818;BME280;391;51.052;6.954;2023-05-14T08:40:36;101079.50;;;17.09;64.56
818;BME280;391;51.052;6.954;2023-05-14T08:42:39;101086.59;;;17.16;64.55
818;BME280;391;51.052;6.954;2023-05-14T08:44:47;101082.22;;;17.21;65.07
818;BME280;391;51.052;6.954;2023-05-14T08:46:52;101082.34;;;17.36;64.88
818;BME280;391;51.052;6.954;2023-05-14T08:49:04;101076.19;;;17.37;64.75
818;BME280;391;51.052;6.954;2023-05-14T08:51:11;101077.16;;;17.45;64.44
818;BME280;391;51.052;6.954;2023-05-14T08:53:17;101069.31;;;17.56;64.75
818;BME280;391;51.052;6.954;2023-05-14T08:55:20;101063.22;;;17.64;65.64
818;BME280;391;51.052;6.954;2023-05-14T08:57:25;101045.63;;;17.60;66.21
818;BME280;391;51.052;6.954;2023-05-14T08:59:28;101060.69;;;17.82;66.34
818;BME280;391;51.052;6.954;2023-05-14T09:01:32;101065.94;;;17.79;65.52
818;BME280;391;51.052;6.954;2023-05-14T09:03:36;100983.00;;;17.27;65.80
818;BME280;391;51.052;6.954;2023-05-14T09:05:41;101072.13;;;17.93;65.55
818;BME280;391;51.052;6.954;2023-05-14T09:07:45;101070.41;;;17.97;65.43
818;BME280;391;51.052;6.954;2023-05-14T09:09:49;101036.97;;;17.91;65.06
818;BME280;391;51.052;6.954;2023-05-14T09:11:53;100970.88;;;17.58;65.04
818;BME280;391;51.052;6.954;2023-05-14T09:13:57;101062.56;;;18.17;65.25
818;BME280;391;51.052;6.954;2023-05-14T09:16:00;101062.59;;;18.24;65.21
818;BME280;391;51.052;6.954;2023-05-14T09:18:05;101066.13;;;18.28;64.54
818;BME280;391;51.052;6.954;2023-05-14T09:20:11;101062.59;;;18.29;64.37
818;BME280;391;51.052;6.954;2023-05-14T09:22:17;101061.75;;;18.48;64.44
818;BME280;391;51.052;6.954;2023-05-14T09:24:23;101060.06;;;18.50;62.79
818;BME280;391;51.052;6.954;2023-05-14T09:26:30;101054.78;;;18.62;62.43
818;BME280;391;51.052;6.954;2023-05-14T09:28:38;101060.06;;;18.50;60.12
818;BME280;391;51.052;6.954;2023-05-14T09:30:46;100959.59;;;18.02;60.08
818;BME280;391;51.052;6.954;2023-05-14T09:32:53;101053.00;;;18.76;59.00
818;BME280;391;51.052;6.954;2023-05-14T09:34:57;101045.97;;;18.84;58.45
818;BME280;391;51.052;6.954;2023-05-14T09:37:03;100952.59;;;18.32;57.75
818;BME280;391;51.052;6.954;2023-05-14T09:39:08;101045.97;;;18.93;56.48
818;BME280;391;51.052;6.954;2023-05-14T09:41:12;101053.00;;;19.05;56.14
818;BME280;391;51.052;6.954;2023-05-14T09:43:16;101050.38;;;19.02;55.19
818;BME280;391;51.052;6.954;2023-05-14T09:45:19;101048.63;;;19.01;55.08
818;BME280;391;51.052;6.954;2023-05-14T09:47:23;101037.16;;;18.99;54.37
818;BME280;391;51.052;6.954;2023-05-14T09:49:27;101040.69;;;18.99;52.31
818;BME280;391;51.052;6.954;2023-05-14T09:51:30;101043.31;;;19.21;53.15
818;BME280;391;51.052;6.954;2023-05-14T09:53:34;101035.38;;;19.25;51.95
818;BME280;391;51.052;6.954;2023-05-14T09:55:39;101042.44;;;19.43;51.20
818;BME280;391;51.052;6.954;2023-05-14T09:57:43;101038.84;;;19.53;51.51
818;BME280;391;51.052;6.954;2023-05-14T09:59:46;101030.94;;;19.59;51.17
818;BME280;391;51.052;6.954;2023-05-14T10:01:50;101044.94;;;19.79;51.77
818;BME280;391;51.052;6.954;2023-05-14T10:03:54;101050.19;;;19.93;51.97
818;BME280;391;51.052;6.954;2023-05-14T10:06:01;101038.59;;;20.14;51.44
818;BME280;391;51.052;6.954;2023-05-14T10:08:09;101027.22;;;20.02;51.90
818;BME280;391;51.052;6.954;2023-05-14T10:10:18;101036.91;;;20.05;52.98
818;BME280;391;51.052;6.954;2023-05-14T10:12:24;101022.66;;;20.26;52.75
818;BME280;391;51.052;6.954;2023-05-14T10:14:34;101019.03;;;20.45;53.42
818;BME280;391;51.052;6.954;2023-05-14T10:16:43;101023.31;;;20.63;53.16
818;BME280;391;51.052;6.954;2023-05-14T10:18:51;101033.84;;;20.72;52.81
818;BME280;391;51.052;6.954;2023-05-14T10:21:03;101017.13;;;20.67;51.67
818;BME280;391;51.052;6.954;2023-05-14T10:23:07;101019.66;;;20.77;52.64
818;BME280;391;51.052;6.954;2023-05-14T10:25:11;100988.09;;;20.51;53.38
818;BME280;391;51.052;6.954;2023-05-14T10:27:15;101013.59;;;20.62;53.88
818;BME280;391;51.052;6.954;2023-05-14T10:29:31;101006.59;;;20.56;53.09
818;BME280;391;51.052;6.954;2023-05-14T10:31:48;101010.03;;;20.67;53.12
818;BME280;391;51.052;6.954;2023-05-14T10:33:52;101010.78;;;20.83;53.18
818;BME280;391;51.052;6.954;2023-05-14T10:35:59;101008.03;;;20.95;53.65
818;BME280;391;51.052;6.954;2023-05-14T10:38:06;100985.94;;;20.94;53.16
818;BME280;391;51.052;6.954;2023-05-14T10:40:11;100998.91;;;21.28;52.52
818;BME280;391;51.052;6.954;2023-05-14T10:42:17;100997.75;;;21.48;51.27
818;BME280;391;51.052;6.954;2023-05-14T10:44:22;100998.91;;;21.28;50.21
818;BME280;391;51.052;6.954;2023-05-14T10:46:25;100990.09;;;21.24;50.32
818;BME280;391;51.052;6.954;2023-05-14T10:48:29;100990.22;;;21.12;51.34
818;BME280;391;51.052;6.954;2023-05-14T10:50:33;100988.47;;;21.09;50.42
818;BME280;391;51.052;6.954;2023-05-14T10:52:36;100985.78;;;21.13;49.30
818;BME280;391;51.052;6.954;2023-05-14T10:54:47;100965.53;;;21.01;49.03
818;BME280;391;51.052;6.954;2023-05-14T10:56:51;100982.28;;;21.07;48.67
818;BME280;391;51.052;6.954;2023-05-14T10:58:57;100977.00;;;21.09;49.20
818;BME280;391;51.052;6.954;2023-05-14T11:01:02;100976.13;;;21.04;49.02
818;BME280;391;51.052;6.954;2023-05-14T11:03:07;100966.44;;;21.00;49.06
818;BME280;391;51.052;6.954;2023-05-14T11:05:12;100972.72;;;20.91;48.29
818;BME280;391;51.052;6.954;2023-05-14T11:07:18;100970.06;;;20.93;48.06
818;BME280;391;51.052;6.954;2023-05-14T11:09:25;100977.13;;;20.92;47.62
818;BME280;391;51.052;6.954;2023-05-14T11:11:30;100964.72;;;20.94;48.02
818;BME280;391;51.052;6.954;2023-05-14T11:13:33;100971.00;;;20.86;48.56
818;BME280;391;51.052;6.954;2023-05-14T11:15:37;100972.00;;;20.73;48.78
818;BME280;391;51.052;6.954;2023-05-14T11:17:50;100967.63;;;20.70;48.92
818;BME280;391;51.052;6.954;2023-05-14T11:19:54;100963.22;;;20.65;48.36
818;BME280;391;51.052;6.954;2023-05-14T11:21:58;100962.25;;;20.75;48.06
818;BME280;391;51.052;6.954;2023-05-14T11:24:02;100957.03;;;20.67;48.40
818;BME280;391;51.052;6.954;2023-05-14T11:26:06;100963.06;;;20.83;48.58